sensor_id;sensor_type;location;lat;lon;timestamp;P1;P2;P0
66336;PMS1003;53139;45.576;5.304;2023-02-15T00:02:54;44.75;38.25;25.75
66336;PMS1003;53139;45.576;5.304;2023-02-15T00:05:56;78.33;59.33;38.00
66336;PMS1003;53139;45.576;5.304;2023-02-15T00:08:57;51.75;39.75;26.50
66336;PMS1003;53139;45.576;5.304;2023-02-15T00:11:58;43.75;40.00;27.00
66336;PMS1003;53139;45.576;5.304;2023-02-15T00:14:58;43.33;35.67;23.00
66336;PMS1003;53139;45.576;5.304;2023-02-15T00:17:59;52.33;40.67;25.33
66336;PMS1003;53139;45.576;5.304;2023-02-15T00:21:03;46.67;40.67;26.67
66336;PMS1003;53139;45.576;5.304;2023-02-15T00:24:06;35.00;27.00;15.75
66336;PMS1003;53139;45.576;5.304;2023-02-15T00:27:08;43.50;35.75;25.50
66336;PMS1003;53139;45.576;5.304;2023-02-15T00:30:09;40.00;32.00;20.25
66336;PMS1003;53139;45.576;5.304;2023-02-15T00:33:09;43.75;34.50;24.25
66336;PMS1003;53139;45.576;5.304;2023-02-15T00:36:10;38.50;34.50;22.25
66336;PMS1003;53139;45.576;5.304;2023-02-15T00:39:11;44.00;37.25;24.50
66336;PMS1003;53139;45.576;5.304;2023-02-15T00:42:12;41.25;36.75;27.00
66336;PMS1003;53139;45.576;5.304;2023-02-15T00:45:12;46.75;38.50;24.25
66336;PMS1003;53139;45.576;5.304;2023-02-15T00:48:13;50.50;42.50;28.00
66336;PMS1003;53139;45.576;5.304;2023-02-15T00:51:13;38.75;32.00;22.75
66336;PMS1003;53139;45.576;5.304;2023-02-15T00:54:14;48.00;36.00;24.50
66336;PMS1003;53139;45.576;5.304;2023-02-15T00:57:14;39.00;32.75;23.25
66336;PMS1003;53139;45.576;5.304;2023-02-15T01:00:15;42.33;31.67;18.67
66336;PMS1003;53139;45.576;5.304;2023-02-15T01:03:16;45.75;36.25;24.50
66336;PMS1003;53139;45.576;5.304;2023-02-15T01:06:17;37.25;35.25;23.25
66336;PMS1003;53139;45.576;5.304;2023-02-15T01:09:18;35.00;28.25;20.25
66336;PMS1003;53139;45.576;5.304;2023-02-15T01:12:18;35.00;29.33;24.00
66336;PMS1003;53139;45.576;5.304;2023-02-15T01:15:19;44.00;42.00;28.00
66336;PMS1003;53139;45.576;5.304;2023-02-15T01:18:19;43.25;32.75;20.75
66336;PMS1003;53139;45.576;5.304;2023-02-15T01:21:21;44.25;38.25;25.50
66336;PMS1003;53139;45.576;5.304;2023-02-15T01:24:22;40.50;31.25;19.00
66336;PMS1003;53139;45.576;5.304;2023-02-15T01:27:23;38.33;31.00;21.00
66336;PMS1003;53139;45.576;5.304;2023-02-15T01:30:23;39.25;35.25;22.50
66336;PMS1003;53139;45.576;5.304;2023-02-15T01:33:24;39.75;31.25;22.25
66336;PMS1003;53139;45.576;5.304;2023-02-15T01:36:24;48.00;37.75;25.25
66336;PMS1003;53139;45.576;5.304;2023-02-15T01:39:24;45.00;37.67;22.33
66336;PMS1003;53139;45.576;5.304;2023-02-15T01:42:25;43.50;29.75;17.50
66336;PMS1003;53139;45.576;5.304;2023-02-15T01:45:29;46.75;39.00;22.50
66336;PMS1003;53139;45.576;5.304;2023-02-15T01:48:31;50.00;37.00;26.00
66336;PMS1003;53139;45.576;5.304;2023-02-15T01:51:32;37.00;28.50;17.50
66336;PMS1003;53139;45.576;5.304;2023-02-15T01:54:36;48.75;32.00;19.75
66336;PMS1003;53139;45.576;5.304;2023-02-15T01:57:39;49.25;40.25;26.25
66336;PMS1003;53139;45.576;5.304;2023-02-15T02:00:40;41.75;30.75;18.75
66336;PMS1003;53139;45.576;5.304;2023-02-15T02:06:57;45.00;33.25;22.50
66336;PMS1003;53139;45.576;5.304;2023-02-15T02:09:59;38.00;36.00;25.50
66336;PMS1003;53139;45.576;5.304;2023-02-15T02:13:01;29.25;22.50;21.25
66336;PMS1003;53139;45.576;5.304;2023-02-15T02:16:07;46.75;37.50;24.00
66336;PMS1003;53139;45.576;5.304;2023-02-15T02:42:41;45.00;37.00;27.00
66336;PMS1003;53139;45.576;5.304;2023-02-15T02:45:45;43.00;35.00;22.25
66336;PMS1003;53139;45.576;5.304;2023-02-15T02:48:57;45.50;34.00;23.25
66336;PMS1003;53139;45.576;5.304;2023-02-15T02:51:58;55.50;41.50;27.50
66336;PMS1003;53139;45.576;5.304;2023-02-15T02:55:00;46.50;42.25;26.50
66336;PMS1003;53139;45.576;5.304;2023-02-15T02:58:05;52.25;39.75;25.25
66336;PMS1003;53139;45.576;5.304;2023-02-15T03:01:33;40.50;32.25;21.25
66336;PMS1003;53139;45.576;5.304;2023-02-15T03:04:39;44.75;35.75;24.25
66336;PMS1003;53139;45.576;5.304;2023-02-15T03:07:46;45.75;35.25;24.50
66336;PMS1003;53139;45.576;5.304;2023-02-15T03:10:54;45.25;37.50;25.75
66336;PMS1003;53139;45.576;5.304;2023-02-15T03:13:59;45.25;38.25;25.75
66336;PMS1003;53139;45.576;5.304;2023-02-15T03:16:59;40.75;34.50;23.75
66336;PMS1003;53139;45.576;5.304;2023-02-15T03:20:04;43.00;34.00;22.00
66336;PMS1003;53139;45.576;5.304;2023-02-15T03:23:14;55.25;39.50;24.75
66336;PMS1003;53139;45.576;5.304;2023-02-15T03:26:18;42.00;32.75;23.50
66336;PMS1003;53139;45.576;5.304;2023-02-15T03:29:22;40.25;33.00;24.00
66336;PMS1003;53139;45.576;5.304;2023-02-15T03:32:25;44.75;37.75;22.25
66336;PMS1003;53139;45.576;5.304;2023-02-15T03:35:54;40.75;36.00;23.75
66336;PMS1003;53139;45.576;5.304;2023-02-15T03:39:33;39.50;33.00;21.25
66336;PMS1003;53139;45.576;5.304;2023-02-15T03:42:38;49.00;40.25;25.25
66336;PMS1003;53139;45.576;5.304;2023-02-15T03:45:39;37.75;33.75;23.00
66336;PMS1003;53139;45.576;5.304;2023-02-15T03:48:55;34.25;28.25;17.00
66336;PMS1003;53139;45.576;5.304;2023-02-15T03:52:00;47.75;41.50;27.00
66336;PMS1003;53139;45.576;5.304;2023-02-15T03:55:04;48.75;37.50;25.50
66336;PMS1003;53139;45.576;5.304;2023-02-15T03:58:05;45.50;41.75;28.25
66336;PMS1003;53139;45.576;5.304;2023-02-15T04:01:35;44.00;33.75;25.00
66336;PMS1003;53139;45.576;5.304;2023-02-15T04:04:46;54.75;40.75;25.75
66336;PMS1003;53139;45.576;5.304;2023-02-15T04:07:48;52.25;43.00;27.50
66336;PMS1003;53139;45.576;5.304;2023-02-15T04:10:48;45.00;41.00;27.50
66336;PMS1003;53139;45.576;5.304;2023-02-15T04:13:56;46.00;40.75;26.50
66336;PMS1003;53139;45.576;5.304;2023-02-15T04:16:56;59.50;46.50;30.00
66336;PMS1003;53139;45.576;5.304;2023-02-15T04:19:56;57.75;43.75;28.50
66336;PMS1003;53139;45.576;5.304;2023-02-15T04:23:15;56.00;43.00;29.00
66336;PMS1003;53139;45.576;5.304;2023-02-15T04:26:35;53.25;42.50;27.75
66336;PMS1003;53139;45.576;5.304;2023-02-15T04:29:35;43.33;35.33;23.67
66336;PMS1003;53139;45.576;5.304;2023-02-15T04:32:35;46.00;38.00;25.67
66336;PMS1003;53139;45.576;5.304;2023-02-15T04:35:36;49.75;42.75;27.25
66336;PMS1003;53139;45.576;5.304;2023-02-15T04:38:37;48.25;40.75;27.00
66336;PMS1003;53139;45.576;5.304;2023-02-15T04:41:37;53.33;41.33;26.67
66336;PMS1003;53139;45.576;5.304;2023-02-15T04:44:37;43.00;31.00;21.00
66336;PMS1003;53139;45.576;5.304;2023-02-15T04:47:38;54.50;46.75;28.25
66336;PMS1003;53139;45.576;5.304;2023-02-15T04:50:38;52.33;40.00;26.00
66336;PMS1003;53139;45.576;5.304;2023-02-15T04:53:38;45.33;39.67;27.00
66336;PMS1003;53139;45.576;5.304;2023-02-15T04:56:39;51.75;39.75;25.25
66336;PMS1003;53139;45.576;5.304;2023-02-15T04:59:39;49.50;41.00;26.25
66336;PMS1003;53139;45.576;5.304;2023-02-15T05:02:40;42.75;36.00;25.00
66336;PMS1003;53139;45.576;5.304;2023-02-15T05:05:40;48.25;41.50;24.00
66336;PMS1003;53139;45.576;5.304;2023-02-15T05:08:41;59.25;46.50;29.50
66336;PMS1003;53139;45.576;5.304;2023-02-15T05:11:41;51.67;43.00;27.00
66336;PMS1003;53139;45.576;5.304;2023-02-15T05:14:42;44.00;31.25;17.75
66336;PMS1003;53139;45.576;5.304;2023-02-15T05:17:42;44.33;39.67;24.00
66336;PMS1003;53139;45.576;5.304;2023-02-15T05:20:43;47.67;42.00;27.33
66336;PMS1003;53139;45.576;5.304;2023-02-15T05:23:43;49.75;37.25;26.50
66336;PMS1003;53139;45.576;5.304;2023-02-15T05:26:44;54.50;43.75;27.75
66336;PMS1003;53139;45.576;5.304;2023-02-15T05:30:02;44.50;40.50;27.50
66336;PMS1003;53139;45.576;5.304;2023-02-15T05:33:03;50.75;40.50;28.25
66336;PMS1003;53139;45.576;5.304;2023-02-15T05:36:04;52.67;43.67;28.33
66336;PMS1003;53139;45.576;5.304;2023-02-15T05:39:05;44.25;37.50;26.25
66336;PMS1003;53139;45.576;5.304;2023-02-15T05:42:06;55.75;42.25;25.50
66336;PMS1003;53139;45.576;5.304;2023-02-15T05:45:07;58.25;43.25;27.50
66336;PMS1003;53139;45.576;5.304;2023-02-15T05:48:07;46.75;40.75;26.00
66336;PMS1003;53139;45.576;5.304;2023-02-15T05:51:12;62.00;45.00;28.33
66336;PMS1003;53139;45.576;5.304;2023-02-15T05:54:13;51.75;38.75;26.50
66336;PMS1003;53139;45.576;5.304;2023-02-15T05:57:14;57.25;43.25;28.00
66336;PMS1003;53139;45.576;5.304;2023-02-15T06:00:17;70.25;48.25;30.75
66336;PMS1003;53139;45.576;5.304;2023-02-15T06:03:18;63.25;46.25;27.00
66336;PMS1003;53139;45.576;5.304;2023-02-15T06:06:18;60.25;45.75;30.00
66336;PMS1003;53139;45.576;5.304;2023-02-15T06:09:19;53.33;45.67;27.33
66336;PMS1003;53139;45.576;5.304;2023-02-15T06:12:19;64.50;48.25;28.50
66336;PMS1003;53139;45.576;5.304;2023-02-15T06:15:20;58.75;46.25;28.50
66336;PMS1003;53139;45.576;5.304;2023-02-15T06:18:20;55.50;44.25;26.00
66336;PMS1003;53139;45.576;5.304;2023-02-15T06:21:21;56.00;44.25;28.25
66336;PMS1003;53139;45.576;5.304;2023-02-15T06:24:21;55.25;42.75;28.25
66336;PMS1003;53139;45.576;5.304;2023-02-15T06:27:21;69.33;51.67;33.00
66336;PMS1003;53139;45.576;5.304;2023-02-15T06:30:22;49.33;38.00;27.33
66336;PMS1003;53139;45.576;5.304;2023-02-15T06:33:23;70.00;49.33;31.00
66336;PMS1003;53139;45.576;5.304;2023-02-15T06:36:24;63.00;46.75;31.25
66336;PMS1003;53139;45.576;5.304;2023-02-15T06:39:24;62.33;46.67;30.00
66336;PMS1003;53139;45.576;5.304;2023-02-15T06:42:25;64.00;46.33;28.00
66336;PMS1003;53139;45.576;5.304;2023-02-15T06:45:25;52.00;44.00;29.67
66336;PMS1003;53139;45.576;5.304;2023-02-15T06:48:25;56.75;44.75;28.25
66336;PMS1003;53139;45.576;5.304;2023-02-15T06:51:26;57.25;39.75;26.75
66336;PMS1003;53139;45.576;5.304;2023-02-15T06:54:27;67.00;49.25;31.00
66336;PMS1003;53139;45.576;5.304;2023-02-15T06:57:27;55.00;43.67;30.00
66336;PMS1003;53139;45.576;5.304;2023-02-15T07:00:27;55.67;42.00;27.67
66336;PMS1003;53139;45.576;5.304;2023-02-15T07:03:28;62.75;45.25;31.00
66336;PMS1003;53139;45.576;5.304;2023-02-15T07:06:32;48.25;41.25;27.00
66336;PMS1003;53139;45.576;5.304;2023-02-15T07:09:33;48.00;38.00;25.75
66336;PMS1003;53139;45.576;5.304;2023-02-15T07:12:33;59.33;47.00;28.67
66336;PMS1003;53139;45.576;5.304;2023-02-15T07:15:44;64.50;47.00;27.50
66336;PMS1003;53139;45.576;5.304;2023-02-15T07:18:46;57.00;47.50;30.00
66336;PMS1003;53139;45.576;5.304;2023-02-15T07:21:46;63.25;48.00;29.75
66336;PMS1003;53139;45.576;5.304;2023-02-15T07:24:47;58.25;43.25;28.25
66336;PMS1003;53139;45.576;5.304;2023-02-15T07:27:49;55.00;43.00;29.50
66336;PMS1003;53139;45.576;5.304;2023-02-15T07:30:58;66.25;47.50;31.25
66336;PMS1003;53139;45.576;5.304;2023-02-15T07:34:01;59.00;48.25;31.25
66336;PMS1003;53139;45.576;5.304;2023-02-15T07:37:02;68.33;47.00;30.00
66336;PMS1003;53139;45.576;5.304;2023-02-15T07:40:02;58.75;45.50;30.75
66336;PMS1003;53139;45.576;5.304;2023-02-15T07:43:03;52.50;46.00;31.25
66336;PMS1003;53139;45.576;5.304;2023-02-15T07:46:05;58.50;46.00;30.50
66336;PMS1003;53139;45.576;5.304;2023-02-15T07:49:11;63.00;47.75;28.50
66336;PMS1003;53139;45.576;5.304;2023-02-15T07:52:11;64.25;47.50;30.25
66336;PMS1003;53139;45.576;5.304;2023-02-15T07:55:12;54.50;43.00;31.50
66336;PMS1003;53139;45.576;5.304;2023-02-15T07:58:12;53.75;43.25;29.00
66336;PMS1003;53139;45.576;5.304;2023-02-15T08:01:13;61.33;45.33;29.00
66336;PMS1003;53139;45.576;5.304;2023-02-15T08:04:14;60.25;42.00;28.00
66336;PMS1003;53139;45.576;5.304;2023-02-15T08:07:15;58.50;40.75;27.00
66336;PMS1003;53139;45.576;5.304;2023-02-15T08:10:15;57.33;44.67;29.33
66336;PMS1003;53139;45.576;5.304;2023-02-15T08:13:35;56.75;44.25;29.75
66336;PMS1003;53139;45.576;5.304;2023-02-15T08:16:54;59.50;41.25;28.00
66336;PMS1003;53139;45.576;5.304;2023-02-15T08:19:56;63.00;45.50;28.00
66336;PMS1003;53139;45.576;5.304;2023-02-15T08:22:56;55.67;42.67;26.33
66336;PMS1003;53139;45.576;5.304;2023-02-15T08:25:59;57.50;44.00;28.00
66336;PMS1003;53139;45.576;5.304;2023-02-15T08:29:00;57.75;44.00;28.00
66336;PMS1003;53139;45.576;5.304;2023-02-15T08:32:05;59.00;44.25;27.25
66336;PMS1003;53139;45.576;5.304;2023-02-15T08:35:07;58.00;42.25;26.25
66336;PMS1003;53139;45.576;5.304;2023-02-15T08:38:07;58.75;42.25;25.25
66336;PMS1003;53139;45.576;5.304;2023-02-15T08:41:17;49.67;39.00;25.67
66336;PMS1003;53139;45.576;5.304;2023-02-15T08:44:19;51.50;38.75;25.25
66336;PMS1003;53139;45.576;5.304;2023-02-15T08:47:20;50.00;39.00;25.75
66336;PMS1003;53139;45.576;5.304;2023-02-15T08:50:20;53.00;39.00;23.25
66336;PMS1003;53139;45.576;5.304;2023-02-15T08:53:21;40.50;35.00;23.00
66336;PMS1003;53139;45.576;5.304;2023-02-15T08:56:23;44.50;36.25;24.00
66336;PMS1003;53139;45.576;5.304;2023-02-15T08:59:25;45.25;36.00;23.50
66336;PMS1003;53139;45.576;5.304;2023-02-15T09:02:26;40.75;35.25;23.50
66336;PMS1003;53139;45.576;5.304;2023-02-15T09:05:27;45.75;37.00;23.75
66336;PMS1003;53139;45.576;5.304;2023-02-15T09:08:27;45.25;34.75;22.50
66336;PMS1003;53139;45.576;5.304;2023-02-15T09:11:29;36.50;30.75;20.50
66336;PMS1003;53139;45.576;5.304;2023-02-15T09:14:31;33.50;29.00;21.25
66336;PMS1003;53139;45.576;5.304;2023-02-15T09:17:31;38.00;32.50;20.00
66336;PMS1003;53139;45.576;5.304;2023-02-15T09:20:34;44.50;37.25;23.75
66336;PMS1003;53139;45.576;5.304;2023-02-15T09:23:35;36.00;29.00;19.25
66336;PMS1003;53139;45.576;5.304;2023-02-15T09:26:37;33.00;28.25;19.25
66336;PMS1003;53139;45.576;5.304;2023-02-15T09:29:40;29.25;26.50;15.75
66336;PMS1003;53139;45.576;5.304;2023-02-15T09:32:41;28.50;26.00;17.75
66336;PMS1003;53139;45.576;5.304;2023-02-15T09:35:41;32.50;24.50;16.00
66336;PMS1003;53139;45.576;5.304;2023-02-15T09:38:41;29.50;27.25;17.00
66336;PMS1003;53139;45.576;5.304;2023-02-15T09:45:06;33.50;25.50;16.75
66336;PMS1003;53139;45.576;5.304;2023-02-15T09:51:56;32.25;24.25;17.75
66336;PMS1003;53139;45.576;5.304;2023-02-15T10:01:59;23.25;22.50;15.00
66336;PMS1003;53139;45.576;5.304;2023-02-15T10:05:38;30.25;26.75;17.75
66336;PMS1003;53139;45.576;5.304;2023-02-15T10:15:59;23.75;20.50;14.00
66336;PMS1003;53139;45.576;5.304;2023-02-15T10:19:06;26.75;21.25;15.50
66336;PMS1003;53139;45.576;5.304;2023-02-15T10:22:22;26.75;25.25;15.75
66336;PMS1003;53139;45.576;5.304;2023-02-15T10:25:43;30.00;28.00;18.00
66336;PMS1003;53139;45.576;5.304;2023-02-15T10:32:23;25.00;23.25;17.00
66336;PMS1003;53139;45.576;5.304;2023-02-15T10:35:30;31.25;25.25;16.50
66336;PMS1003;53139;45.576;5.304;2023-02-15T11:01:45;19.75;19.00;14.25
66336;PMS1003;53139;45.576;5.304;2023-02-15T11:04:55;11.50;8.25;6.50
66336;PMS1003;53139;45.576;5.304;2023-02-15T11:08:17;15.00;12.75;10.00
66336;PMS1003;53139;45.576;5.304;2023-02-15T11:11:23;12.50;11.50;8.00
66336;PMS1003;53139;45.576;5.304;2023-02-15T11:14:35;16.75;13.00;9.25
66336;PMS1003;53139;45.576;5.304;2023-02-15T11:17:46;10.25;10.00;8.25
66336;PMS1003;53139;45.576;5.304;2023-02-15T11:20:59;13.75;10.25;7.75
66336;PMS1003;53139;45.576;5.304;2023-02-15T11:24:07;12.50;10.75;9.00
66336;PMS1003;53139;45.576;5.304;2023-02-15T11:31:02;20.00;18.50;13.50
66336;PMS1003;53139;45.576;5.304;2023-02-15T11:33:45;17.00;15.50;10.75
66336;PMS1003;53139;45.576;5.304;2023-02-15T11:36:50;17.25;15.25;10.25
66336;PMS1003;53139;45.576;5.304;2023-02-15T11:39:53;15.00;11.75;9.50
66336;PMS1003;53139;45.576;5.304;2023-02-15T11:42:58;10.25;10.25;6.25
66336;PMS1003;53139;45.576;5.304;2023-02-15T11:46:03;16.00;13.50;10.25
66336;PMS1003;53139;45.576;5.304;2023-02-15T11:49:49;16.50;14.75;10.50
66336;PMS1003;53139;45.576;5.304;2023-02-15T11:52:29;14.00;13.00;9.50
66336;PMS1003;53139;45.576;5.304;2023-02-15T11:55:30;17.00;13.00;9.00
66336;PMS1003;53139;45.576;5.304;2023-02-15T11:58:42;17.50;12.50;9.75
66336;PMS1003;53139;45.576;5.304;2023-02-15T12:01:47;15.00;14.00;10.00
66336;PMS1003;53139;45.576;5.304;2023-02-15T12:04:55;15.25;14.00;10.75
66336;PMS1003;53139;45.576;5.304;2023-02-15T12:08:09;11.25;11.25;8.25
66336;PMS1003;53139;45.576;5.304;2023-02-15T12:11:19;16.75;15.50;11.50
66336;PMS1003;53139;45.576;5.304;2023-02-15T12:14:25;18.25;16.00;11.00
66336;PMS1003;53139;45.576;5.304;2023-02-15T12:17:27;20.50;13.00;10.00
66336;PMS1003;53139;45.576;5.304;2023-02-15T12:20:31;16.25;12.50;9.00
66336;PMS1003;53139;45.576;5.304;2023-02-15T12:23:33;15.00;13.00;10.50
66336;PMS1003;53139;45.576;5.304;2023-02-15T12:26:40;15.25;14.00;10.00
66336;PMS1003;53139;45.576;5.304;2023-02-15T12:29:41;13.25;13.00;10.00
66336;PMS1003;53139;45.576;5.304;2023-02-15T12:32:49;17.50;13.00;10.00
66336;PMS1003;53139;45.576;5.304;2023-02-15T12:35:56;16.50;13.00;9.50
66336;PMS1003;53139;45.576;5.304;2023-02-15T12:42:16;13.00;12.25;9.00
66336;PMS1003;53139;45.576;5.304;2023-02-15T12:45:24;15.25;12.25;8.25
66336;PMS1003;53139;45.576;5.304;2023-02-15T12:48:30;14.25;12.00;9.00
66336;PMS1003;53139;45.576;5.304;2023-02-15T12:51:30;13.50;9.75;8.00
66336;PMS1003;53139;45.576;5.304;2023-02-15T12:54:33;13.25;10.75;8.25
66336;PMS1003;53139;45.576;5.304;2023-02-15T12:57:34;12.00;10.00;6.00
66336;PMS1003;53139;45.576;5.304;2023-02-15T13:00:34;9.25;8.00;5.25
66336;PMS1003;53139;45.576;5.304;2023-02-15T13:03:36;9.50;7.25;5.50
66336;PMS1003;53139;45.576;5.304;2023-02-15T13:06:45;5.75;5.25;4.00
66336;PMS1003;53139;45.576;5.304;2023-02-15T13:09:48;5.00;5.00;3.25
66336;PMS1003;53139;45.576;5.304;2023-02-15T13:12:50;6.25;6.25;4.25
66336;PMS1003;53139;45.576;5.304;2023-02-15T13:15:55;8.00;6.75;5.25
66336;PMS1003;53139;45.576;5.304;2023-02-15T13:19:02;9.75;7.00;5.50
66336;PMS1003;53139;45.576;5.304;2023-02-15T13:22:07;7.25;6.25;5.00
66336;PMS1003;53139;45.576;5.304;2023-02-15T13:25:16;7.25;7.25;5.00
66336;PMS1003;53139;45.576;5.304;2023-02-15T13:28:20;8.75;7.75;5.00
66336;PMS1003;53139;45.576;5.304;2023-02-15T13:31:25;6.75;6.75;5.25
66336;PMS1003;53139;45.576;5.304;2023-02-15T13:34:37;7.00;6.00;4.00
66336;PMS1003;53139;45.576;5.304;2023-02-15T13:41:03;6.75;6.75;4.50
66336;PMS1003;53139;45.576;5.304;2023-02-15T13:53:53;7.00;5.50;4.00
66336;PMS1003;53139;45.576;5.304;2023-02-15T14:01:24;5.75;4.25;3.50
66336;PMS1003;53139;45.576;5.304;2023-02-15T14:14:23;9.50;5.50;4.50
66336;PMS1003;53139;45.576;5.304;2023-02-15T14:21:15;7.00;5.75;4.25
66336;PMS1003;53139;45.576;5.304;2023-02-15T14:24:42;7.50;5.75;4.25
66336;PMS1003;53139;45.576;5.304;2023-02-15T14:28:08;5.75;5.00;4.50
66336;PMS1003;53139;45.576;5.304;2023-02-15T14:31:47;9.00;8.00;5.00
66336;PMS1003;53139;45.576;5.304;2023-02-15T14:34:56;9.00;6.00;5.50
66336;PMS1003;53139;45.576;5.304;2023-02-15T14:44:21;8.00;6.00;4.67
66336;PMS1003;53139;45.576;5.304;2023-02-15T14:47:33;3.25;2.75;2.25
66336;PMS1003;53139;45.576;5.304;2023-02-15T14:50:42;8.00;6.75;5.00
66336;PMS1003;53139;45.576;5.304;2023-02-15T14:53:46;10.25;7.75;5.50
66336;PMS1003;53139;45.576;5.304;2023-02-15T14:57:20;7.75;7.50;4.50
66336;PMS1003;53139;45.576;5.304;2023-02-15T15:00:30;11.00;6.00;4.50
66336;PMS1003;53139;45.576;5.304;2023-02-15T15:03:33;7.75;7.00;5.75
66336;PMS1003;53139;45.576;5.304;2023-02-15T15:06:36;6.50;6.25;5.25
66336;PMS1003;53139;45.576;5.304;2023-02-15T15:09:40;8.50;6.00;5.00
66336;PMS1003;53139;45.576;5.304;2023-02-15T15:12:52;10.50;8.00;6.00
66336;PMS1003;53139;45.576;5.304;2023-02-15T15:15:54;9.25;6.50;5.75
66336;PMS1003;53139;45.576;5.304;2023-02-15T15:18:54;7.25;6.00;4.25
66336;PMS1003;53139;45.576;5.304;2023-02-15T15:21:56;8.00;7.00;5.50
66336;PMS1003;53139;45.576;5.304;2023-02-15T15:28:02;7.50;7.50;5.50
66336;PMS1003;53139;45.576;5.304;2023-02-15T15:48:32;5.25;4.00;2.75
66336;PMS1003;53139;45.576;5.304;2023-02-15T15:51:39;5.25;3.75;3.25
66336;PMS1003;53139;45.576;5.304;2023-02-15T15:54:40;5.75;4.50;4.00
66336;PMS1003;53139;45.576;5.304;2023-02-15T15:57:42;4.75;3.50;3.00
66336;PMS1003;53139;45.576;5.304;2023-02-15T16:00:52;3.00;3.00;2.25
66336;PMS1003;53139;45.576;5.304;2023-02-15T16:03:58;6.50;4.25;3.75
66336;PMS1003;53139;45.576;5.304;2023-02-15T16:10:22;6.75;6.50;5.00
66336;PMS1003;53139;45.576;5.304;2023-02-15T16:13:27;7.25;6.00;4.25
66336;PMS1003;53139;45.576;5.304;2023-02-15T16:16:28;7.75;4.25;3.25
66336;PMS1003;53139;45.576;5.304;2023-02-15T16:19:32;7.00;5.50;4.50
66336;PMS1003;53139;45.576;5.304;2023-02-15T16:22:35;3.25;3.25;3.00
66336;PMS1003;53139;45.576;5.304;2023-02-15T16:25:37;5.00;5.00;4.00
66336;PMS1003;53139;45.576;5.304;2023-02-15T16:28:48;7.75;6.75;4.25
66336;PMS1003;53139;45.576;5.304;2023-02-15T16:31:58;6.75;6.75;4.75
66336;PMS1003;53139;45.576;5.304;2023-02-15T16:35:03;5.25;5.25;4.25
66336;PMS1003;53139;45.576;5.304;2023-02-15T16:38:13;4.50;4.50;3.75
66336;PMS1003;53139;45.576;5.304;2023-02-15T16:41:15;7.00;5.00;4.00
66336;PMS1003;53139;45.576;5.304;2023-02-15T16:44:21;7.00;4.00;3.00
66336;PMS1003;53139;45.576;5.304;2023-02-15T16:47:25;6.75;4.00;3.00
66336;PMS1003;53139;45.576;5.304;2023-02-15T16:50:32;9.00;6.00;4.00
66336;PMS1003;53139;45.576;5.304;2023-02-15T16:53:36;8.00;5.75;4.50
66336;PMS1003;53139;45.576;5.304;2023-02-15T16:56:37;5.00;5.00;4.00
66336;PMS1003;53139;45.576;5.304;2023-02-15T16:59:39;7.50;7.00;4.00
66336;PMS1003;53139;45.576;5.304;2023-02-15T17:03:01;8.00;6.75;5.00
66336;PMS1003;53139;45.576;5.304;2023-02-15T17:06:04;7.25;7.00;6.00
66336;PMS1003;53139;45.576;5.304;2023-02-15T17:09:19;12.25;10.00;7.50
66336;PMS1003;53139;45.576;5.304;2023-02-15T17:18:59;8.25;6.75;5.50
66336;PMS1003;53139;45.576;5.304;2023-02-15T17:22:14;7.00;6.75;4.25
66336;PMS1003;53139;45.576;5.304;2023-02-15T17:25:19;9.75;6.75;5.50
66336;PMS1003;53139;45.576;5.304;2023-02-15T17:28:24;16.00;10.00;7.00
66336;PMS1003;53139;45.576;5.304;2023-02-15T17:31:31;12.25;8.75;7.00
66336;PMS1003;53139;45.576;5.304;2023-02-15T17:37:43;16.50;12.50;9.50
66336;PMS1003;53139;45.576;5.304;2023-02-15T17:40:47;17.50;17.25;12.00
66336;PMS1003;53139;45.576;5.304;2023-02-15T17:43:48;24.50;21.25;13.00
66336;PMS1003;53139;45.576;5.304;2023-02-15T17:46:48;14.50;12.50;10.00
66336;PMS1003;53139;45.576;5.304;2023-02-15T17:49:49;11.75;11.75;10.25
66336;PMS1003;53139;45.576;5.304;2023-02-15T17:52:50;18.25;14.25;11.25
66336;PMS1003;53139;45.576;5.304;2023-02-15T17:55:51;22.00;18.50;12.25
66336;PMS1003;53139;45.576;5.304;2023-02-15T17:58:52;15.25;14.25;10.75
66336;PMS1003;53139;45.576;5.304;2023-02-15T18:01:52;23.25;18.75;14.00
66336;PMS1003;53139;45.576;5.304;2023-02-15T18:05:14;17.75;14.75;10.75
66336;PMS1003;53139;45.576;5.304;2023-02-15T18:08:33;21.50;16.75;13.00
66336;PMS1003;53139;45.576;5.304;2023-02-15T18:11:52;18.75;17.00;11.25
66336;PMS1003;53139;45.576;5.304;2023-02-15T18:14:53;20.00;18.75;14.00
66336;PMS1003;53139;45.576;5.304;2023-02-15T18:17:55;22.00;18.00;14.75
66336;PMS1003;53139;45.576;5.304;2023-02-15T18:20:55;19.50;18.50;13.00
66336;PMS1003;53139;45.576;5.304;2023-02-15T18:23:56;39.50;34.50;22.00
66336;PMS1003;53139;45.576;5.304;2023-02-15T18:26:56;32.50;28.75;19.50
66336;PMS1003;53139;45.576;5.304;2023-02-15T18:29:57;22.75;22.50;15.50
66336;PMS1003;53139;45.576;5.304;2023-02-15T18:32:57;31.75;30.50;22.25
66336;PMS1003;53139;45.576;5.304;2023-02-15T18:35:59;35.25;28.50;19.00
66336;PMS1003;53139;45.576;5.304;2023-02-15T18:39:02;28.25;27.75;18.25
66336;PMS1003;53139;45.576;5.304;2023-02-15T18:42:03;38.75;29.75;22.25
66336;PMS1003;53139;45.576;5.304;2023-02-15T18:48:14;56.25;41.75;28.75
66336;PMS1003;53139;45.576;5.304;2023-02-15T18:51:18;33.75;31.25;22.50
66336;PMS1003;53139;45.576;5.304;2023-02-15T18:54:21;63.75;47.50;29.00
66336;PMS1003;53139;45.576;5.304;2023-02-15T18:57:23;35.00;26.50;20.00
66336;PMS1003;53139;45.576;5.304;2023-02-15T19:00:26;59.75;43.50;29.25
66336;PMS1003;53139;45.576;5.304;2023-02-15T19:03:29;83.50;61.25;38.25
66336;PMS1003;53139;45.576;5.304;2023-02-15T19:06:29;75.00;56.00;33.00
66336;PMS1003;53139;45.576;5.304;2023-02-15T19:09:30;47.25;36.75;24.00
66336;PMS1003;53139;45.576;5.304;2023-02-15T19:12:31;45.25;36.25;24.25
66336;PMS1003;53139;45.576;5.304;2023-02-15T19:15:32;76.50;57.50;37.00
66336;PMS1003;53139;45.576;5.304;2023-02-15T19:18:32;57.75;43.50;29.00
66336;PMS1003;53139;45.576;5.304;2023-02-15T19:21:33;79.75;61.25;39.25
66336;PMS1003;53139;45.576;5.304;2023-02-15T19:24:37;57.00;46.67;30.67
66336;PMS1003;53139;45.576;5.304;2023-02-15T19:27:40;57.75;46.50;29.25
66336;PMS1003;53139;45.576;5.304;2023-02-15T19:30:41;53.50;44.50;30.00
66336;PMS1003;53139;45.576;5.304;2023-02-15T19:33:41;48.50;39.50;26.75
66336;PMS1003;53139;45.576;5.304;2023-02-15T19:36:42;50.33;39.67;26.00
66336;PMS1003;53139;45.576;5.304;2023-02-15T19:39:44;50.00;39.75;25.00
66336;PMS1003;53139;45.576;5.304;2023-02-15T19:42:45;55.25;43.75;29.25
66336;PMS1003;53139;45.576;5.304;2023-02-15T19:45:45;49.00;41.50;28.00
66336;PMS1003;53139;45.576;5.304;2023-02-15T19:48:46;54.75;43.50;29.25
66336;PMS1003;53139;45.576;5.304;2023-02-15T19:51:47;48.25;41.00;28.50
66336;PMS1003;53139;45.576;5.304;2023-02-15T19:54:48;56.00;44.75;31.75
66336;PMS1003;53139;45.576;5.304;2023-02-15T19:57:49;58.25;46.25;30.50
66336;PMS1003;53139;45.576;5.304;2023-02-15T20:00:51;70.75;55.50;35.25